Lacey, Washington
Current Conditions -  °F | °C
As of 6:54 PM on Tuesday 25 Nov 2014 (Local Time) from KOLM Reporting Station
Overcast Overcast  
Wind Chill: 56°   Ceiling: 2100
Heat Index: 56°   Visibility: 10mi
Dew Point: 53°   Wind: 9mph
Humidity: 90%   Direction: 210°SSW
Pressure: 30.21"   Gusts: NA
Location:  47.04°N, 122.82°W
Report Text: KOLM 260254Z 21008KT 10SM BKN021 BKN026 OVC032 13/12 A3021 RMK AO2 RAE22 SLP231 P0001 60006 T01330117 58001
Loading
Personal Weather Stations






























Interactive Weather Map New forecast layout! Learn more

10-Day Weather Forecast

Advertisements
Track Severe Weather on mobile